WetterOnline ( https://www.wetteronline.de )

Wetter aktuell Bad Hönningen

Aktuelles Wetter: Andernach (75m)

6-stündlich | Neueste Meldungen
Ortszeit Temperatur Wetter
Do, 27.01. 19:00 5.5° C bedeckt
Do, 27.01. 13:00 4.5° C Sprühregen
Do, 27.01. 7:00 2.2° C bedeckt
Do, 27.01. 1:00 1.9° C bedeckt
Mi, 26.01. 19:00 2.9° C bedeckt
Mi, 26.01. 13:00 2.0° C bedeckt
Mi, 26.01. 7:00 2.1° C bedeckt
Mi, 26.01. 1:00 1.3° C bedeckt
Ortszeit Temperatur Wetter
Do, 27.01. 19:00 5.5° C bedeckt
Do, 27.01. 18:50 5.5° C bedeckt
Do, 27.01. 18:40 5.4° C bedeckt
Do, 27.01. 18:30 5.2° C bedeckt
Do, 27.01. 18:20 5.2° C bedeckt
Do, 27.01. 18:10 5.2° C bedeckt
Do, 27.01. 18:00 5.1° C bewölkt
Do, 27.01. 17:30 5.4° C bewölkt
Do, 27.01. 17:00 5.5° C Sprühregen
Do, 27.01. 16:30 6.0° C Sprühregen
Do, 27.01. 16:00 6.6° C Sprühregen
Ortszeit Relative Feuchte Sichtweite
Do, 27.01. 19:00 83% 60 km
Do, 27.01. 13:00 84% 6 km
Do, 27.01. 7:00 78% 18 km
Do, 27.01. 1:00 79% 12 km
Mi, 26.01. 19:00 74% 21 km
Mi, 26.01. 13:00 79% 21 km
Mi, 26.01. 7:00 88% 12 km
Mi, 26.01. 1:00 94% 7 km
Ortszeit Relative Feuchte Sichtweite
Do, 27.01. 19:00 83% 60 km
Do, 27.01. 18:50 83% -
Do, 27.01. 18:40 83% -
Do, 27.01. 18:30 83% 65 km
Do, 27.01. 18:20 83% -
Do, 27.01. 18:10 84% -
Do, 27.01. 18:00 87% 45 km
Do, 27.01. 17:30 84% 50 km
Do, 27.01. 17:00 84% 16 km
Do, 27.01. 16:30 86% 13 km
Do, 27.01. 16:00 81% 28 km
Ortszeit Niederschlagsmenge Niederschlagsart
Do, 27.01. 19:00 0.1 l/m2 in 12 Std. Regen
Do, 27.01. 13:00 0.1 l/m2 in 6 Std. Regen
Do, 27.01. 7:00 0.0 l/m2 in 12 Std. -
Do, 27.01. 1:00 0.0 l/m2 in 6 Std. -
Mi, 26.01. 19:00 0.1 l/m2 in 12 Std. Sprühregen
Mi, 26.01. 13:00 0.1 l/m2 in 6 Std. Sprühregen
Mi, 26.01. 7:00 0.1 l/m2 in 12 Std. Sprühregen
Mi, 26.01. 1:00 0.0 l/m2 in 6 Std. -
Ortszeit Niederschlagsmenge Niederschlagsart
Do, 27.01. 19:00 0.1 l/m2 in 1 Std. Regen
Do, 27.01. 18:50 keine Meldung -
Do, 27.01. 18:40 keine Meldung -
Do, 27.01. 18:30 0.1 l/m2 in 1 Std. Schnee
Do, 27.01. 18:20 keine Meldung -
Do, 27.01. 18:10 keine Meldung -
Do, 27.01. 18:00 0.1 l/m2 in 1 Std. Regen
Do, 27.01. 17:30 0.1 l/m2 in 1 Std. Schneeregen
Do, 27.01. 17:00 0.1 l/m2 in 1 Std. Regen
Do, 27.01. 16:30 0.1 l/m2 in 1 Std. -
Do, 27.01. 16:00 0.1 l/m2 in 1 Std. Regen
Ortszeit Stärke Spitze Richtung
km/h Bft. km/h Grad Sektor
Do, 27.01. 19:00 22 4 40 220° SW
Do, 27.01. 13:00 14 3 32 190° S
Do, 27.01. 7:00 11 2 18 200° S
Do, 27.01. 1:00 7 2 22 220° SW
Mi, 26.01. 19:00 7 2 20 300° NW
Mi, 26.01. 13:00 9 2 26 220° SW
Mi, 26.01. 7:00 4 1 14 240° SW
Mi, 26.01. 1:00 7 2 18 220° SW
Ortszeit Stärke Spitze Richtung
km/h Bft. km/h Grad Sektor
Do, 27.01. 19:00 22 4 40 220° SW
Do, 27.01. 18:50 22 4 - 220° SW
Do, 27.01. 18:40 22 4 - 220° SW
Do, 27.01. 18:30 24 4 39 220° SW
Do, 27.01. 18:20 24 4 - 220° SW
Do, 27.01. 18:10 22 4 - 220° SW
Do, 27.01. 18:00 20 4 33 220° SW
Do, 27.01. 17:30 20 4 31 220° SW
Do, 27.01. 17:00 19 3 26 220° SW
Do, 27.01. 16:30 13 3 22 230° SW
Do, 27.01. 16:00 11 2 22 230° SW
Ortszeit Untergrenze Bedeckung Gattung
total tief tief mittel hoch
Do, 27.01. 19:00 660 m 8/8 8/8 - - -
Do, 27.01. 13:00 570 m 8/8 8/8 - - -
Do, 27.01. 7:00 570 m 8/8 8/8 - - -
Do, 27.01. 1:00 480 m 8/8 8/8 - - -
Mi, 26.01. 19:00 570 m 8/8 8/8 - - -
Mi, 26.01. 13:00 510 m 8/8 8/8 - - -
Mi, 26.01. 7:00 390 m 8/8 8/8 - - -
Mi, 26.01. 1:00 270 m 8/8 8/8 - - -
Ortszeit Bedeckungsgrad in Achtel und Wolkenuntergrenze
Do, 27.01. 19:00 7(660m) 8(1500m)
Do, 27.01. 18:50 7(660m) 8(1500m)
Do, 27.01. 18:40 8
Do, 27.01. 18:30 8(600m)
Do, 27.01. 18:20 8(600m)
Do, 27.01. 18:10 8
Do, 27.01. 18:00 7(600m) 7(720m)
Do, 27.01. 17:30 7(630m)
Do, 27.01. 17:00 8(660m)
Do, 27.01. 16:30 6(540m) 8(720m)
Do, 27.01. 16:00 8(570m)
Ortszeit Luftdruck NN (hPa) Tendenz (hPa in 3 Std.)
Do, 27.01. 19:00 1025 + 0,5
Do, 27.01. 13:00 1026 - 0,9
Do, 27.01. 7:00 1029 - 1,3
Do, 27.01. 1:00 1031 - 1,0
Mi, 26.01. 19:00 1033 + 0,2
Mi, 26.01. 13:00 1034 + 0,3
Mi, 26.01. 7:00 1033 - 0,6
Mi, 26.01. 1:00 1034 - 0,4
Ortszeit Luftdruck NN (hPa) Tendenz (hPa in 3 Std.)
Do, 27.01. 19:00 1025 + 0,5
Do, 27.01. 18:50 1025 keine Meldung
Do, 27.01. 18:40 1025 keine Meldung
Do, 27.01. 18:30 1025 + 0,5
Do, 27.01. 18:20 1025 keine Meldung
Do, 27.01. 18:10 1025 keine Meldung
Do, 27.01. 18:00 1025 + 0,5
Do, 27.01. 17:30 1025 + 0,1
Do, 27.01. 17:00 1025 - 0,1
Do, 27.01. 16:30 1025 - 0,7
Do, 27.01. 16:00 1025 - 1,1
Ortszeit Schneehöhe (cm)
Do, 27.01. 19:00 0
Do, 27.01. 13:00 0
Do, 27.01. 7:00 0
Do, 27.01. 1:00 0
Mi, 26.01. 19:00 0
Mi, 26.01. 13:00 0
Mi, 26.01. 7:00 0
Mi, 26.01. 1:00 0
Ortszeit Schneehöhe (cm)
Do, 27.01. 19:00 0
Do, 27.01. 18:50 0
Do, 27.01. 18:40 0
Do, 27.01. 18:30 0
Do, 27.01. 18:20 0
Do, 27.01. 18:10 0
Do, 27.01. 18:00 0
Do, 27.01. 17:30 0
Do, 27.01. 17:00 0
Do, 27.01. 16:30 0
Do, 27.01. 16:00 0
Link zu dieser Seite / Seite empfehlen

Das Wetter in ...